sensor_id;sensor_type;location;lat;lon;timestamp;temperature;humidity
9497;DHT22;4786;51.270;4.456;2023-11-21T00:00:26;8.40;99.90
9497;DHT22;4786;51.270;4.456;2023-11-21T00:02:53;8.30;99.90
9497;DHT22;4786;51.270;4.456;2023-11-21T00:05:19;8.30;99.90
9497;DHT22;4786;51.270;4.456;2023-11-21T00:07:45;8.30;99.90
9497;DHT22;4786;51.270;4.456;2023-11-21T00:10:12;8.30;99.90
9497;DHT22;4786;51.270;4.456;2023-11-21T00:12:39;8.20;99.90
9497;DHT22;4786;51.270;4.456;2023-11-21T00:15:08;8.20;99.90
9497;DHT22;4786;51.270;4.456;2023-11-21T00:17:40;8.30;99.90
9497;DHT22;4786;51.270;4.456;2023-11-21T00:20:07;8.30;99.90
9497;DHT22;4786;51.270;4.456;2023-11-21T00:22:36;8.30;99.90
9497;DHT22;4786;51.270;4.456;2023-11-21T00:25:02;8.40;99.90
9497;DHT22;4786;51.270;4.456;2023-11-21T00:27:32;8.40;99.90
9497;DHT22;4786;51.270;4.456;2023-11-21T00:29:58;8.50;99.90
9497;DHT22;4786;51.270;4.456;2023-11-21T00:32:24;8.40;99.90
9497;DHT22;4786;51.270;4.456;2023-11-21T00:34:50;8.40;99.90
9497;DHT22;4786;51.270;4.456;2023-11-21T00:37:16;8.40;99.90
9497;DHT22;4786;51.270;4.456;2023-11-21T00:39:45;8.40;99.90
9497;DHT22;4786;51.270;4.456;2023-11-21T00:42:11;8.40;99.90
9497;DHT22;4786;51.270;4.456;2023-11-21T00:44:39;8.40;99.90
9497;DHT22;4786;51.270;4.456;2023-11-21T00:47:06;8.40;99.90
9497;DHT22;4786;51.270;4.456;2023-11-21T00:49:31;8.40;99.90
9497;DHT22;4786;51.270;4.456;2023-11-21T00:51:57;8.40;99.90
9497;DHT22;4786;51.270;4.456;2023-11-21T00:54:24;8.30;99.90
9497;DHT22;4786;51.270;4.456;2023-11-21T00:56:50;8.30;99.90
9497;DHT22;4786;51.270;4.456;2023-11-21T00:59:16;8.30;99.90
9497;DHT22;4786;51.270;4.456;2023-11-21T01:01:42;8.30;99.90
9497;DHT22;4786;51.270;4.456;2023-11-21T01:04:08;8.20;99.90
9497;DHT22;4786;51.270;4.456;2023-11-21T01:06:34;8.20;99.90
9497;DHT22;4786;51.270;4.456;2023-11-21T01:09:00;8.20;99.90
9497;DHT22;4786;51.270;4.456;2023-11-21T01:11:26;8.20;99.90
9497;DHT22;4786;51.270;4.456;2023-11-21T01:13:52;8.20;99.90
9497;DHT22;4786;51.270;4.456;2023-11-21T01:16:18;8.30;99.90
9497;DHT22;4786;51.270;4.456;2023-11-21T01:18:44;8.30;99.90
9497;DHT22;4786;51.270;4.456;2023-11-21T01:21:10;8.30;99.90
9497;DHT22;4786;51.270;4.456;2023-11-21T01:23:36;8.30;99.90
9497;DHT22;4786;51.270;4.456;2023-11-21T01:26:03;8.30;99.90
9497;DHT22;4786;51.270;4.456;2023-11-21T01:28:29;8.30;99.90
9497;DHT22;4786;51.270;4.456;2023-11-21T01:30:54;8.40;99.90
9497;DHT22;4786;51.270;4.456;2023-11-21T01:33:22;8.40;99.90
9497;DHT22;4786;51.270;4.456;2023-11-21T01:35:50;8.40;99.90
9497;DHT22;4786;51.270;4.456;2023-11-21T01:38:16;8.40;99.90
9497;DHT22;4786;51.270;4.456;2023-11-21T01:40:42;8.40;99.90
9497;DHT22;4786;51.270;4.456;2023-11-21T01:43:09;8.50;99.90
9497;DHT22;4786;51.270;4.456;2023-11-21T01:45:34;8.50;99.90
9497;DHT22;4786;51.270;4.456;2023-11-21T01:48:02;8.50;99.90
9497;DHT22;4786;51.270;4.456;2023-11-21T01:50:28;8.60;99.90
9497;DHT22;4786;51.270;4.456;2023-11-21T01:52:55;8.60;99.90
9497;DHT22;4786;51.270;4.456;2023-11-21T01:55:21;8.60;99.90
9497;DHT22;4786;51.270;4.456;2023-11-21T01:57:47;8.60;99.90
9497;DHT22;4786;51.270;4.456;2023-11-21T02:00:14;8.60;99.90
9497;DHT22;4786;51.270;4.456;2023-11-21T02:02:45;8.70;99.90
9497;DHT22;4786;51.270;4.456;2023-11-21T02:05:12;8.70;99.90
9497;DHT22;4786;51.270;4.456;2023-11-21T02:07:39;8.80;99.90
9497;DHT22;4786;51.270;4.456;2023-11-21T02:10:07;8.70;99.90
9497;DHT22;4786;51.270;4.456;2023-11-21T02:12:33;8.80;99.90
9497;DHT22;4786;51.270;4.456;2023-11-21T02:15:02;8.80;99.90
9497;DHT22;4786;51.270;4.456;2023-11-21T02:17:28;8.80;99.90
9497;DHT22;4786;51.270;4.456;2023-11-21T02:19:54;8.90;99.90
9497;DHT22;4786;51.270;4.456;2023-11-21T02:22:20;8.90;99.90
9497;DHT22;4786;51.270;4.456;2023-11-21T02:24:46;8.90;99.90
9497;DHT22;4786;51.270;4.456;2023-11-21T02:27:13;8.90;99.90
9497;DHT22;4786;51.270;4.456;2023-11-21T02:29:39;9.00;99.90
9497;DHT22;4786;51.270;4.456;2023-11-21T02:32:05;9.00;99.90
9497;DHT22;4786;51.270;4.456;2023-11-21T02:34:33;9.00;99.90
9497;DHT22;4786;51.270;4.456;2023-11-21T02:37:00;9.00;99.90
9497;DHT22;4786;51.270;4.456;2023-11-21T02:39:26;9.10;99.90
9497;DHT22;4786;51.270;4.456;2023-11-21T02:41:52;9.10;99.90
9497;DHT22;4786;51.270;4.456;2023-11-21T02:44:18;9.10;99.90
9497;DHT22;4786;51.270;4.456;2023-11-21T02:46:44;9.00;99.90
9497;DHT22;4786;51.270;4.456;2023-11-21T02:49:10;9.00;99.90
9497;DHT22;4786;51.270;4.456;2023-11-21T02:51:37;9.10;99.90
9497;DHT22;4786;51.270;4.456;2023-11-21T02:54:06;9.10;99.90
9497;DHT22;4786;51.270;4.456;2023-11-21T02:56:33;9.10;99.90
9497;DHT22;4786;51.270;4.456;2023-11-21T02:59:00;9.10;99.90
9497;DHT22;4786;51.270;4.456;2023-11-21T03:01:27;9.10;99.90
9497;DHT22;4786;51.270;4.456;2023-11-21T03:03:53;9.10;99.90
9497;DHT22;4786;51.270;4.456;2023-11-21T03:06:20;9.10;99.90
9497;DHT22;4786;51.270;4.456;2023-11-21T03:08:47;9.10;99.90
9497;DHT22;4786;51.270;4.456;2023-11-21T03:11:13;9.10;99.90
9497;DHT22;4786;51.270;4.456;2023-11-21T03:13:42;9.10;99.90
9497;DHT22;4786;51.270;4.456;2023-11-21T03:16:09;9.20;99.90
9497;DHT22;4786;51.270;4.456;2023-11-21T03:18:36;9.20;99.90
9497;DHT22;4786;51.270;4.456;2023-11-21T03:21:03;9.20;99.90
9497;DHT22;4786;51.270;4.456;2023-11-21T03:23:29;9.20;99.90
9497;DHT22;4786;51.270;4.456;2023-11-21T03:25:54;9.20;99.90
9497;DHT22;4786;51.270;4.456;2023-11-21T03:28:20;9.20;99.90
9497;DHT22;4786;51.270;4.456;2023-11-21T03:30:46;9.30;99.90
9497;DHT22;4786;51.270;4.456;2023-11-21T03:33:12;9.30;99.90
9497;DHT22;4786;51.270;4.456;2023-11-21T03:35:38;9.30;99.90
9497;DHT22;4786;51.270;4.456;2023-11-21T03:38:04;9.30;99.90
9497;DHT22;4786;51.270;4.456;2023-11-21T03:40:29;9.30;99.90
9497;DHT22;4786;51.270;4.456;2023-11-21T03:42:56;9.30;99.90
9497;DHT22;4786;51.270;4.456;2023-11-21T03:45:22;9.30;99.90
9497;DHT22;4786;51.270;4.456;2023-11-21T03:47:49;9.30;99.90
9497;DHT22;4786;51.270;4.456;2023-11-21T03:50:15;9.30;99.90
9497;DHT22;4786;51.270;4.456;2023-11-21T03:52:41;9.40;99.90
9497;DHT22;4786;51.270;4.456;2023-11-21T03:55:07;9.50;99.90
9497;DHT22;4786;51.270;4.456;2023-11-21T03:57:33;9.50;99.90
9497;DHT22;4786;51.270;4.456;2023-11-21T03:59:59;9.50;99.90
9497;DHT22;4786;51.270;4.456;2023-11-21T04:02:25;9.50;99.90
9497;DHT22;4786;51.270;4.456;2023-11-21T04:04:51;9.50;99.90
9497;DHT22;4786;51.270;4.456;2023-11-21T04:07:17;9.50;99.90
9497;DHT22;4786;51.270;4.456;2023-11-21T04:09:43;9.50;99.90
9497;DHT22;4786;51.270;4.456;2023-11-21T04:12:10;9.50;99.90
9497;DHT22;4786;51.270;4.456;2023-11-21T04:14:35;9.50;99.90
9497;DHT22;4786;51.270;4.456;2023-11-21T04:17:01;9.50;99.90
9497;DHT22;4786;51.270;4.456;2023-11-21T04:19:29;9.50;99.90
9497;DHT22;4786;51.270;4.456;2023-11-21T04:21:55;9.50;99.90
9497;DHT22;4786;51.270;4.456;2023-11-21T04:24:21;9.50;99.90
9497;DHT22;4786;51.270;4.456;2023-11-21T04:26:47;9.50;99.90
9497;DHT22;4786;51.270;4.456;2023-11-21T04:29:13;9.50;99.90
9497;DHT22;4786;51.270;4.456;2023-11-21T04:31:39;9.60;99.90
9497;DHT22;4786;51.270;4.456;2023-11-21T04:34:05;9.60;99.90
9497;DHT22;4786;51.270;4.456;2023-11-21T04:36:31;9.60;99.90
9497;DHT22;4786;51.270;4.456;2023-11-21T04:38:57;9.70;99.90
9497;DHT22;4786;51.270;4.456;2023-11-21T04:41:22;9.60;99.90
9497;DHT22;4786;51.270;4.456;2023-11-21T04:43:48;9.60;99.90
9497;DHT22;4786;51.270;4.456;2023-11-21T04:46:14;9.60;99.90
9497;DHT22;4786;51.270;4.456;2023-11-21T04:48:40;9.70;99.90
9497;DHT22;4786;51.270;4.456;2023-11-21T04:51:06;9.70;99.90
9497;DHT22;4786;51.270;4.456;2023-11-21T04:53:32;9.70;99.90
9497;DHT22;4786;51.270;4.456;2023-11-21T04:55:57;9.70;99.90
9497;DHT22;4786;51.270;4.456;2023-11-21T04:58:24;9.70;99.90
9497;DHT22;4786;51.270;4.456;2023-11-21T05:00:50;9.70;99.90
9497;DHT22;4786;51.270;4.456;2023-11-21T05:03:16;9.80;99.90
9497;DHT22;4786;51.270;4.456;2023-11-21T05:05:42;9.70;99.90
9497;DHT22;4786;51.270;4.456;2023-11-21T05:08:07;9.80;99.90
9497;DHT22;4786;51.270;4.456;2023-11-21T05:10:33;9.80;99.90
9497;DHT22;4786;51.270;4.456;2023-11-21T05:12:59;9.70;99.90
9497;DHT22;4786;51.270;4.456;2023-11-21T05:15:26;9.70;99.90
9497;DHT22;4786;51.270;4.456;2023-11-21T05:17:53;9.70;99.90
9497;DHT22;4786;51.270;4.456;2023-11-21T05:20:20;9.70;99.90
9497;DHT22;4786;51.270;4.456;2023-11-21T05:22:49;9.70;99.90
9497;DHT22;4786;51.270;4.456;2023-11-21T05:25:16;9.70;99.90
9497;DHT22;4786;51.270;4.456;2023-11-21T05:27:44;9.70;99.90
9497;DHT22;4786;51.270;4.456;2023-11-21T05:30:10;9.70;99.90
9497;DHT22;4786;51.270;4.456;2023-11-21T05:32:38;9.70;99.90
9497;DHT22;4786;51.270;4.456;2023-11-21T05:35:04;9.70;99.90
9497;DHT22;4786;51.270;4.456;2023-11-21T05:37:37;9.70;99.90
9497;DHT22;4786;51.270;4.456;2023-11-21T05:40:06;9.70;99.90
9497;DHT22;4786;51.270;4.456;2023-11-21T05:42:33;9.70;99.90
9497;DHT22;4786;51.270;4.456;2023-11-21T05:44:59;9.70;99.90
9497;DHT22;4786;51.270;4.456;2023-11-21T05:47:41;9.70;99.90
9497;DHT22;4786;51.270;4.456;2023-11-21T05:50:08;9.70;99.90
9497;DHT22;4786;51.270;4.456;2023-11-21T05:52:41;9.70;99.90
9497;DHT22;4786;51.270;4.456;2023-11-21T05:55:08;9.70;99.90
9497;DHT22;4786;51.270;4.456;2023-11-21T05:57:34;9.70;99.90
9497;DHT22;4786;51.270;4.456;2023-11-21T06:00:09;9.70;99.90
9497;DHT22;4786;51.270;4.456;2023-11-21T06:02:43;9.70;99.90
9497;DHT22;4786;51.270;4.456;2023-11-21T06:05:10;9.70;99.90
9497;DHT22;4786;51.270;4.456;2023-11-21T06:07:37;9.70;99.90
9497;DHT22;4786;51.270;4.456;2023-11-21T06:10:04;9.80;99.90
9497;DHT22;4786;51.270;4.456;2023-11-21T06:12:34;9.80;99.90
9497;DHT22;4786;51.270;4.456;2023-11-21T06:15:04;9.80;99.90
9497;DHT22;4786;51.270;4.456;2023-11-21T06:17:34;9.80;99.90
9497;DHT22;4786;51.270;4.456;2023-11-21T06:20:02;9.80;99.90
9497;DHT22;4786;51.270;4.456;2023-11-21T06:22:45;9.90;99.90
9497;DHT22;4786;51.270;4.456;2023-11-21T06:25:11;9.90;99.90
9497;DHT22;4786;51.270;4.456;2023-11-21T06:27:48;9.90;99.90
9497;DHT22;4786;51.270;4.456;2023-11-21T06:30:14;9.90;99.90
9497;DHT22;4786;51.270;4.456;2023-11-21T06:32:41;9.90;99.90
9497;DHT22;4786;51.270;4.456;2023-11-21T06:35:08;9.90;99.90
9497;DHT22;4786;51.270;4.456;2023-11-21T06:37:37;10.00;99.90
9497;DHT22;4786;51.270;4.456;2023-11-21T06:40:03;10.00;99.90
9497;DHT22;4786;51.270;4.456;2023-11-21T06:42:32;10.00;99.90
9497;DHT22;4786;51.270;4.456;2023-11-21T06:44:59;10.00;99.90
9497;DHT22;4786;51.270;4.456;2023-11-21T06:47:27;10.10;99.90
9497;DHT22;4786;51.270;4.456;2023-11-21T06:49:55;10.10;99.90
9497;DHT22;4786;51.270;4.456;2023-11-21T06:52:21;10.10;99.90
9497;DHT22;4786;51.270;4.456;2023-11-21T06:54:47;10.10;99.90
9497;DHT22;4786;51.270;4.456;2023-11-21T06:57:15;10.10;99.90
9497;DHT22;4786;51.270;4.456;2023-11-21T06:59:41;10.10;99.90
9497;DHT22;4786;51.270;4.456;2023-11-21T07:02:08;10.10;99.90
9497;DHT22;4786;51.270;4.456;2023-11-21T07:04:37;10.10;99.90
9497;DHT22;4786;51.270;4.456;2023-11-21T07:07:03;10.10;99.90
9497;DHT22;4786;51.270;4.456;2023-11-21T07:09:30;10.10;99.90
9497;DHT22;4786;51.270;4.456;2023-11-21T07:11:56;10.10;99.90
9497;DHT22;4786;51.270;4.456;2023-11-21T07:14:22;10.10;99.90
9497;DHT22;4786;51.270;4.456;2023-11-21T07:16:48;10.20;99.90
9497;DHT22;4786;51.270;4.456;2023-11-21T07:19:14;10.10;99.90
9497;DHT22;4786;51.270;4.456;2023-11-21T07:21:40;10.20;99.90
9497;DHT22;4786;51.270;4.456;2023-11-21T07:24:07;10.20;99.90
9497;DHT22;4786;51.270;4.456;2023-11-21T07:26:33;10.20;99.90
9497;DHT22;4786;51.270;4.456;2023-11-21T07:29:00;10.20;99.90
9497;DHT22;4786;51.270;4.456;2023-11-21T07:31:26;10.20;99.90
9497;DHT22;4786;51.270;4.456;2023-11-21T07:33:52;10.20;99.90
9497;DHT22;4786;51.270;4.456;2023-11-21T07:36:19;10.20;99.90
9497;DHT22;4786;51.270;4.456;2023-11-21T07:38:46;10.30;99.90
9497;DHT22;4786;51.270;4.456;2023-11-21T07:41:12;10.30;99.90
9497;DHT22;4786;51.270;4.456;2023-11-21T07:43:41;10.30;99.90
9497;DHT22;4786;51.270;4.456;2023-11-21T07:46:07;10.30;99.90
9497;DHT22;4786;51.270;4.456;2023-11-21T07:48:33;10.30;99.90
9497;DHT22;4786;51.270;4.456;2023-11-21T07:51:00;10.30;99.90
9497;DHT22;4786;51.270;4.456;2023-11-21T07:53:26;10.40;99.90
9497;DHT22;4786;51.270;4.456;2023-11-21T07:55:54;10.40;99.90
9497;DHT22;4786;51.270;4.456;2023-11-21T07:58:20;10.40;99.90
9497;DHT22;4786;51.270;4.456;2023-11-21T08:00:46;10.30;99.90
9497;DHT22;4786;51.270;4.456;2023-11-21T08:03:13;10.50;99.90
9497;DHT22;4786;51.270;4.456;2023-11-21T08:05:39;10.40;99.90
9497;DHT22;4786;51.270;4.456;2023-11-21T08:08:05;10.40;99.90
9497;DHT22;4786;51.270;4.456;2023-11-21T08:10:31;10.50;99.90
9497;DHT22;4786;51.270;4.456;2023-11-21T08:12:57;10.50;99.90
9497;DHT22;4786;51.270;4.456;2023-11-21T08:15:23;10.50;99.90
9497;DHT22;4786;51.270;4.456;2023-11-21T08:17:49;10.50;99.90
9497;DHT22;4786;51.270;4.456;2023-11-21T08:20:15;10.50;99.90
9497;DHT22;4786;51.270;4.456;2023-11-21T08:22:44;10.50;99.90
9497;DHT22;4786;51.270;4.456;2023-11-21T08:25:11;10.50;99.90
9497;DHT22;4786;51.270;4.456;2023-11-21T08:27:37;10.50;99.90
9497;DHT22;4786;51.270;4.456;2023-11-21T08:30:03;10.50;99.90
9497;DHT22;4786;51.270;4.456;2023-11-21T08:32:30;10.50;99.90
9497;DHT22;4786;51.270;4.456;2023-11-21T08:34:59;10.60;99.90
9497;DHT22;4786;51.270;4.456;2023-11-21T08:37:26;10.60;99.90
9497;DHT22;4786;51.270;4.456;2023-11-21T08:39:58;10.70;99.90
9497;DHT22;4786;51.270;4.456;2023-11-21T08:42:25;10.70;99.90
9497;DHT22;4786;51.270;4.456;2023-11-21T08:44:50;10.40;99.90
9497;DHT22;4786;51.270;4.456;2023-11-21T08:47:16;10.40;99.90
9497;DHT22;4786;51.270;4.456;2023-11-21T08:49:42;10.70;99.90
9497;DHT22;4786;51.270;4.456;2023-11-21T08:52:08;10.70;99.90
9497;DHT22;4786;51.270;4.456;2023-11-21T08:54:34;10.70;99.90
9497;DHT22;4786;51.270;4.456;2023-11-21T08:56:59;10.70;99.90
9497;DHT22;4786;51.270;4.456;2023-11-21T08:59:26;10.70;99.90
9497;DHT22;4786;51.270;4.456;2023-11-21T09:01:52;10.70;99.90
9497;DHT22;4786;51.270;4.456;2023-11-21T09:04:18;10.80;99.90
9497;DHT22;4786;51.270;4.456;2023-11-21T09:06:44;10.80;99.90
9497;DHT22;4786;51.270;4.456;2023-11-21T09:09:10;10.80;99.90
9497;DHT22;4786;51.270;4.456;2023-11-21T09:11:36;10.80;99.90
9497;DHT22;4786;51.270;4.456;2023-11-21T09:14:03;10.80;99.90
9497;DHT22;4786;51.270;4.456;2023-11-21T09:16:29;10.80;99.90
9497;DHT22;4786;51.270;4.456;2023-11-21T09:18:55;10.80;99.90
9497;DHT22;4786;51.270;4.456;2023-11-21T09:21:21;10.80;99.90
9497;DHT22;4786;51.270;4.456;2023-11-21T09:23:48;10.80;99.90
9497;DHT22;4786;51.270;4.456;2023-11-21T09:26:14;10.80;99.90
9497;DHT22;4786;51.270;4.456;2023-11-21T09:28:43;10.90;99.90
9497;DHT22;4786;51.270;4.456;2023-11-21T09:31:11;11.00;99.90
9497;DHT22;4786;51.270;4.456;2023-11-21T09:33:38;11.00;99.90
9497;DHT22;4786;51.270;4.456;2023-11-21T09:36:04;11.00;99.90
9497;DHT22;4786;51.270;4.456;2023-11-21T09:38:30;11.20;99.90
9497;DHT22;4786;51.270;4.456;2023-11-21T09:40:56;11.10;99.90
9497;DHT22;4786;51.270;4.456;2023-11-21T09:43:25;11.20;99.90
9497;DHT22;4786;51.270;4.456;2023-11-21T09:45:59;11.30;99.90
9497;DHT22;4786;51.270;4.456;2023-11-21T09:48:26;11.40;99.90
9497;DHT22;4786;51.270;4.456;2023-11-21T09:50:53;11.50;99.90
9497;DHT22;4786;51.270;4.456;2023-11-21T09:53:22;11.60;99.90
9497;DHT22;4786;51.270;4.456;2023-11-21T09:55:51;11.80;99.90
9497;DHT22;4786;51.270;4.456;2023-11-21T09:58:18;11.90;99.90
9497;DHT22;4786;51.270;4.456;2023-11-21T10:00:50;11.90;99.90
9497;DHT22;4786;51.270;4.456;2023-11-21T10:03:18;12.00;99.90
9497;DHT22;4786;51.270;4.456;2023-11-21T10:05:44;11.90;99.90
9497;DHT22;4786;51.270;4.456;2023-11-21T10:08:12;11.90;99.90
9497;DHT22;4786;51.270;4.456;2023-11-21T10:10:46;11.90;99.90
9497;DHT22;4786;51.270;4.456;2023-11-21T10:13:14;11.90;99.90
9497;DHT22;4786;51.270;4.456;2023-11-21T10:15:42;11.90;99.90
9497;DHT22;4786;51.270;4.456;2023-11-21T10:18:14;11.90;99.90
9497;DHT22;4786;51.270;4.456;2023-11-21T10:20:44;11.90;99.90
9497;DHT22;4786;51.270;4.456;2023-11-21T10:23:20;11.90;99.90
9497;DHT22;4786;51.270;4.456;2023-11-21T10:25:47;11.90;99.90
9497;DHT22;4786;51.270;4.456;2023-11-21T10:28:15;11.90;99.90
9497;DHT22;4786;51.270;4.456;2023-11-21T10:30:41;12.00;99.90
9497;DHT22;4786;51.270;4.456;2023-11-21T10:33:07;11.90;99.90
9497;DHT22;4786;51.270;4.456;2023-11-21T10:35:49;12.00;99.90
9497;DHT22;4786;51.270;4.456;2023-11-21T10:38:21;12.00;99.90
9497;DHT22;4786;51.270;4.456;2023-11-21T10:40:50;12.10;99.90
9497;DHT22;4786;51.270;4.456;2023-11-21T10:43:16;12.00;99.90
9497;DHT22;4786;51.270;4.456;2023-11-21T10:45:43;12.00;99.90
9497;DHT22;4786;51.270;4.456;2023-11-21T10:48:12;12.10;99.90
9497;DHT22;4786;51.270;4.456;2023-11-21T10:50:40;12.20;99.90
9497;DHT22;4786;51.270;4.456;2023-11-21T10:53:06;12.20;99.90
9497;DHT22;4786;51.270;4.456;2023-11-21T10:55:33;12.20;99.90
9497;DHT22;4786;51.270;4.456;2023-11-21T10:58:01;12.30;99.90
9497;DHT22;4786;51.270;4.456;2023-11-21T11:00:31;12.20;99.90
9497;DHT22;4786;51.270;4.456;2023-11-21T11:02:58;12.10;99.90
9497;DHT22;4786;51.270;4.456;2023-11-21T11:05:26;12.10;99.90
9497;DHT22;4786;51.270;4.456;2023-11-21T11:08:04;12.10;99.90
9497;DHT22;4786;51.270;4.456;2023-11-21T11:10:31;12.10;99.90
9497;DHT22;4786;51.270;4.456;2023-11-21T11:12:58;12.10;99.90
9497;DHT22;4786;51.270;4.456;2023-11-21T11:15:25;12.20;99.90
9497;DHT22;4786;51.270;4.456;2023-11-21T11:17:52;12.20;99.90
9497;DHT22;4786;51.270;4.456;2023-11-21T11:20:23;12.30;99.90
9497;DHT22;4786;51.270;4.456;2023-11-21T11:22:56;12.40;99.90
9497;DHT22;4786;51.270;4.456;2023-11-21T11:28:38;12.20;99.90
9497;DHT22;4786;51.270;4.456;2023-11-21T11:34:36;12.30;99.90
9497;DHT22;4786;51.270;4.456;2023-11-21T11:37:04;12.20;99.90
9497;DHT22;4786;51.270;4.456;2023-11-21T11:39:36;12.10;99.90
9497;DHT22;4786;51.270;4.456;2023-11-21T11:42:06;12.10;99.90
9497;DHT22;4786;51.270;4.456;2023-11-21T11:47:16;12.10;99.90
9497;DHT22;4786;51.270;4.456;2023-11-21T11:50:00;12.20;99.90
9497;DHT22;4786;51.270;4.456;2023-11-21T11:53:11;12.20;99.90
9497;DHT22;4786;51.270;4.456;2023-11-21T11:55:37;12.30;99.90
9497;DHT22;4786;51.270;4.456;2023-11-21T11:58:06;12.30;99.90
9497;DHT22;4786;51.270;4.456;2023-11-21T12:00:35;12.30;99.90
9497;DHT22;4786;51.270;4.456;2023-11-21T12:03:07;12.40;99.90
9497;DHT22;4786;51.270;4.456;2023-11-21T12:05:34;12.40;99.90
9497;DHT22;4786;51.270;4.456;2023-11-21T12:08:11;12.40;99.90
9497;DHT22;4786;51.270;4.456;2023-11-21T12:10:38;12.30;99.90
9497;DHT22;4786;51.270;4.456;2023-11-21T12:13:07;12.30;99.90
9497;DHT22;4786;51.270;4.456;2023-11-21T12:15:34;12.30;99.90
9497;DHT22;4786;51.270;4.456;2023-11-21T12:18:00;12.30;99.90
9497;DHT22;4786;51.270;4.456;2023-11-21T12:20:27;12.30;99.90
9497;DHT22;4786;51.270;4.456;2023-11-21T12:22:58;12.20;99.90
9497;DHT22;4786;51.270;4.456;2023-11-21T12:25:31;12.20;99.90
9497;DHT22;4786;51.270;4.456;2023-11-21T12:28:02;12.20;99.90
9497;DHT22;4786;51.270;4.456;2023-11-21T12:30:30;12.20;99.90
9497;DHT22;4786;51.270;4.456;2023-11-21T12:32:57;12.20;99.90
9497;DHT22;4786;51.270;4.456;2023-11-21T12:35:28;12.20;99.90
9497;DHT22;4786;51.270;4.456;2023-11-21T12:37:56;12.10;99.90
9497;DHT22;4786;51.270;4.456;2023-11-21T12:40:25;12.10;99.90
9497;DHT22;4786;51.270;4.456;2023-11-21T12:42:56;12.10;99.90
9497;DHT22;4786;51.270;4.456;2023-11-21T12:45:24;11.90;99.90
9497;DHT22;4786;51.270;4.456;2023-11-21T12:47:59;11.80;99.90
9497;DHT22;4786;51.270;4.456;2023-11-21T12:50:27;11.90;99.90
9497;DHT22;4786;51.270;4.456;2023-11-21T12:53:05;11.90;99.90
9497;DHT22;4786;51.270;4.456;2023-11-21T12:55:35;11.90;99.90
9497;DHT22;4786;51.270;4.456;2023-11-21T12:58:07;11.90;99.90
9497;DHT22;4786;51.270;4.456;2023-11-21T13:00:44;11.90;99.90
9497;DHT22;4786;51.270;4.456;2023-11-21T13:03:12;11.80;99.90
9497;DHT22;4786;51.270;4.456;2023-11-21T13:05:41;11.90;99.90
9497;DHT22;4786;51.270;4.456;2023-11-21T13:08:16;12.00;99.90
9497;DHT22;4786;51.270;4.456;2023-11-21T13:10:45;11.90;99.90
9497;DHT22;4786;51.270;4.456;2023-11-21T13:13:13;11.80;99.90
9497;DHT22;4786;51.270;4.456;2023-11-21T13:15:53;11.80;99.90
9497;DHT22;4786;51.270;4.456;2023-11-21T13:18:22;11.80;99.90
9497;DHT22;4786;51.270;4.456;2023-11-21T13:20:48;11.70;99.90
9497;DHT22;4786;51.270;4.456;2023-11-21T13:23:15;11.70;99.90
9497;DHT22;4786;51.270;4.456;2023-11-21T13:25:43;11.60;99.90
9497;DHT22;4786;51.270;4.456;2023-11-21T13:28:11;11.70;99.90
9497;DHT22;4786;51.270;4.456;2023-11-21T13:30:38;11.60;99.90
9497;DHT22;4786;51.270;4.456;2023-11-21T13:33:06;11.60;99.90
9497;DHT22;4786;51.270;4.456;2023-11-21T13:35:37;11.60;99.90
9497;DHT22;4786;51.270;4.456;2023-11-21T13:38:06;11.70;99.90
9497;DHT22;4786;51.270;4.456;2023-11-21T13:40:33;11.70;99.90
9497;DHT22;4786;51.270;4.456;2023-11-21T13:43:05;11.70;99.90
9497;DHT22;4786;51.270;4.456;2023-11-21T13:45:39;11.80;99.90
9497;DHT22;4786;51.270;4.456;2023-11-21T13:48:06;11.70;99.90
9497;DHT22;4786;51.270;4.456;2023-11-21T13:50:41;11.60;99.90
9497;DHT22;4786;51.270;4.456;2023-11-21T13:53:21;11.60;99.90
9497;DHT22;4786;51.270;4.456;2023-11-21T13:55:58;11.60;99.90
9497;DHT22;4786;51.270;4.456;2023-11-21T13:58:24;11.60;99.90
9497;DHT22;4786;51.270;4.456;2023-11-21T14:01:05;11.60;99.90
9497;DHT22;4786;51.270;4.456;2023-11-21T14:03:38;11.60;99.90
9497;DHT22;4786;51.270;4.456;2023-11-21T14:06:05;11.60;99.90
9497;DHT22;4786;51.270;4.456;2023-11-21T14:08:42;11.60;99.90
9497;DHT22;4786;51.270;4.456;2023-11-21T14:11:08;11.50;99.90
9497;DHT22;4786;51.270;4.456;2023-11-21T14:13:36;11.50;99.90
9497;DHT22;4786;51.270;4.456;2023-11-21T14:16:03;11.50;99.90
9497;DHT22;4786;51.270;4.456;2023-11-21T14:18:32;11.50;99.90
9497;DHT22;4786;51.270;4.456;2023-11-21T14:21:04;11.50;99.90
9497;DHT22;4786;51.270;4.456;2023-11-21T14:23:31;11.40;99.90
9497;DHT22;4786;51.270;4.456;2023-11-21T14:25:58;11.40;99.90
9497;DHT22;4786;51.270;4.456;2023-11-21T14:28:26;11.40;99.90
9497;DHT22;4786;51.270;4.456;2023-11-21T14:30:52;11.40;99.90
9497;DHT22;4786;51.270;4.456;2023-11-21T14:33:18;11.30;99.90
9497;DHT22;4786;51.270;4.456;2023-11-21T14:35:44;11.30;99.90
9497;DHT22;4786;51.270;4.456;2023-11-21T14:38:11;11.40;99.90
9497;DHT22;4786;51.270;4.456;2023-11-21T14:40:40;11.40;99.90
9497;DHT22;4786;51.270;4.456;2023-11-21T14:43:06;11.40;99.90
9497;DHT22;4786;51.270;4.456;2023-11-21T14:45:32;11.40;99.90
9497;DHT22;4786;51.270;4.456;2023-11-21T14:47:59;11.50;99.90
9497;DHT22;4786;51.270;4.456;2023-11-21T14:50:35;11.50;99.90
9497;DHT22;4786;51.270;4.456;2023-11-21T14:53:03;11.40;99.90
9497;DHT22;4786;51.270;4.456;2023-11-21T14:55:35;11.40;99.90
9497;DHT22;4786;51.270;4.456;2023-11-21T14:58:19;11.40;99.90
9497;DHT22;4786;51.270;4.456;2023-11-21T15:00:56;11.40;99.90
9497;DHT22;4786;51.270;4.456;2023-11-21T15:03:27;11.40;99.90
9497;DHT22;4786;51.270;4.456;2023-11-21T15:06:04;11.40;99.90
9497;DHT22;4786;51.270;4.456;2023-11-21T15:08:52;11.40;99.90
9497;DHT22;4786;51.270;4.456;2023-11-21T15:11:25;11.40;99.90
9497;DHT22;4786;51.270;4.456;2023-11-21T15:13:56;11.40;99.90
9497;DHT22;4786;51.270;4.456;2023-11-21T15:16:22;11.40;99.90
9497;DHT22;4786;51.270;4.456;2023-11-21T15:18:48;11.30;99.90
9497;DHT22;4786;51.270;4.456;2023-11-21T15:21:15;11.40;99.90
9497;DHT22;4786;51.270;4.456;2023-11-21T15:23:40;11.40;99.90
9497;DHT22;4786;51.270;4.456;2023-11-21T15:26:07;11.30;99.90
9497;DHT22;4786;51.270;4.456;2023-11-21T15:28:35;11.40;99.90
9497;DHT22;4786;51.270;4.456;2023-11-21T15:31:01;11.30;99.90
9497;DHT22;4786;51.270;4.456;2023-11-21T15:33:28;11.30;99.90
9497;DHT22;4786;51.270;4.456;2023-11-21T15:35:54;11.30;99.90
9497;DHT22;4786;51.270;4.456;2023-11-21T15:38:20;11.30;99.90
9497;DHT22;4786;51.270;4.456;2023-11-21T15:40:47;11.30;99.90
9497;DHT22;4786;51.270;4.456;2023-11-21T15:43:13;11.30;99.90
9497;DHT22;4786;51.270;4.456;2023-11-21T15:45:39;11.30;99.90
9497;DHT22;4786;51.270;4.456;2023-11-21T15:48:05;11.40;99.90
9497;DHT22;4786;51.270;4.456;2023-11-21T15:50:31;11.40;99.90
9497;DHT22;4786;51.270;4.456;2023-11-21T15:52:58;11.30;99.90
9497;DHT22;4786;51.270;4.456;2023-11-21T15:55:27;11.30;99.90
9497;DHT22;4786;51.270;4.456;2023-11-21T15:57:52;11.30;99.90
9497;DHT22;4786;51.270;4.456;2023-11-21T16:00:19;11.30;99.90
9497;DHT22;4786;51.270;4.456;2023-11-21T16:02:46;11.40;99.90
9497;DHT22;4786;51.270;4.456;2023-11-21T16:05:12;11.30;99.90
9497;DHT22;4786;51.270;4.456;2023-11-21T16:07:43;11.30;99.90
9497;DHT22;4786;51.270;4.456;2023-11-21T16:10:10;11.30;99.90
9497;DHT22;4786;51.270;4.456;2023-11-21T16:12:42;11.40;99.90
9497;DHT22;4786;51.270;4.456;2023-11-21T16:15:09;11.40;99.90
9497;DHT22;4786;51.270;4.456;2023-11-21T16:17:35;11.30;99.90
9497;DHT22;4786;51.270;4.456;2023-11-21T16:20:03;11.20;99.90